createdAt,value
2019-02-15T00:00:14.341Z,46.59
2019-02-15T00:01:14.318Z,46.40
2019-02-15T00:02:14.294Z,45.92
2019-02-15T00:03:14.269Z,46.40
2019-02-15T00:04:14.313Z,46.30
2019-02-15T00:05:14.221Z,45.83
2019-02-15T00:06:14.234Z,45.92
2019-02-15T00:07:14.228Z,46.30
2019-02-15T00:08:14.184Z,45.26
2019-02-15T00:09:14.377Z,45.92
2019-02-15T00:10:14.118Z,44.97
2019-02-15T00:11:14.094Z,45.26
2019-02-15T00:12:14.084Z,45.07
2019-02-15T00:13:14.080Z,44.87
2019-02-15T00:14:14.053Z,44.87
2019-02-15T00:15:14.022Z,45.18
2019-02-15T00:16:14.031Z,45.37
2019-02-15T00:17:13.947Z,45.37
2019-02-15T00:18:13.931Z,45.75
2019-02-15T00:19:13.921Z,46.70
2019-02-15T00:20:13.892Z,46.33
2019-02-15T00:21:13.861Z,46.14
2019-02-15T00:22:13.874Z,46.14
2019-02-15T00:23:13.818Z,46.51
2019-02-15T00:24:13.799Z,46.61
2019-02-15T00:25:13.774Z,46.42
2019-02-15T00:26:13.749Z,46.80
2019-02-15T00:27:13.726Z,46.42
2019-02-15T00:28:13.709Z,46.51
2019-02-15T00:29:13.682Z,46.80
2019-02-15T00:30:13.736Z,47.37
2019-02-15T00:31:13.634Z,46.99
2019-02-15T00:32:13.613Z,47.47
2019-02-15T00:33:13.624Z,47.37
2019-02-15T00:34:13.623Z,47.94
2019-02-15T00:35:13.546Z,47.75
2019-02-15T00:36:13.526Z,48.03
2019-02-15T00:37:13.499Z,48.23
2019-02-15T00:38:13.481Z,48.13
2019-02-15T00:39:13.478Z,48.80
2019-02-15T00:40:13.471Z,48.51
2019-02-15T00:41:13.436Z,48.71
2019-02-15T00:42:13.396Z,48.71
2019-02-15T00:43:21.955Z,49.18
2019-02-15T00:44:13.378Z,49.27
2019-02-15T00:45:13.319Z,49.65
2019-02-15T00:46:13.315Z,49.85
2019-02-15T00:47:13.278Z,50.04
2019-02-15T00:48:13.257Z,50.51
2019-02-15T00:49:13.228Z,50.51
2019-02-15T00:50:13.212Z,50.70
2019-02-15T00:51:13.191Z,50.60
2019-02-15T00:52:13.161Z,50.99
2019-02-15T00:53:13.165Z,51.27
2019-02-15T00:54:13.163Z,51.65
2019-02-15T00:55:13.110Z,51.93
2019-02-15T00:56:13.081Z,51.46
2019-02-15T00:57:13.069Z,51.84
2019-02-15T00:58:13.035Z,52.32
2019-02-15T00:59:13.012Z,52.32
2019-02-15T01:00:13.001Z,52.51
2019-02-15T01:01:12.986Z,52.13
2019-02-15T01:02:12.939Z,52.51
2019-02-15T01:03:12.928Z,51.84
2019-02-15T01:04:12.906Z,51.65
2019-02-15T01:05:12.885Z,52.41
2019-02-15T01:06:12.856Z,52.41
2019-02-15T01:07:12.825Z,52.41
2019-02-15T01:08:12.807Z,52.51
2019-02-15T01:09:12.791Z,52.61
2019-02-15T01:10:12.770Z,52.70
2019-02-15T01:11:12.743Z,52.80
2019-02-15T01:12:12.720Z,52.22
2019-02-15T01:13:12.738Z,52.61
2019-02-15T01:14:12.678Z,52.70
2019-02-15T01:15:12.678Z,52.80
2019-02-15T01:16:12.635Z,52.98
2019-02-15T01:17:12.615Z,53.27
2019-02-15T01:18:12.581Z,52.70
2019-02-15T01:19:12.573Z,53.08
2019-02-15T01:20:12.543Z,53.36
2019-02-15T01:21:12.530Z,53.27
2019-02-15T01:22:12.505Z,53.36
2019-02-15T01:23:12.478Z,53.36
2019-02-15T01:24:12.454Z,53.36
2019-02-15T01:25:12.428Z,54.32
2019-02-15T01:26:12.415Z,53.94
2019-02-15T01:27:12.382Z,54.13
2019-02-15T01:28:12.360Z,54.03
2019-02-15T01:29:12.389Z,54.03
2019-02-15T01:30:12.318Z,54.22
2019-02-15T01:31:12.301Z,53.94
2019-02-15T01:32:12.272Z,54.69
2019-02-15T01:33:12.252Z,54.60
2019-02-15T01:34:12.232Z,54.69
2019-02-15T01:35:12.231Z,54.89
2019-02-15T01:36:12.211Z,54.41
2019-02-15T01:37:12.169Z,55.17
2019-02-15T01:38:12.141Z,55.17
2019-02-15T01:39:12.120Z,54.89
2019-02-15T01:40:12.096Z,54.98
2019-02-15T01:41:12.072Z,54.79
2019-02-15T01:42:12.052Z,55.74
2019-02-15T01:43:12.037Z,55.36
2019-02-15T01:44:12.022Z,55.83
2019-02-15T01:45:11.985Z,55.74
2019-02-15T01:46:11.971Z,56.03
2019-02-15T01:47:11.940Z,56.12
2019-02-15T01:48:11.931Z,56.22
2019-02-15T01:49:11.898Z,56.60
2019-02-15T01:50:11.892Z,57.07
2019-02-15T01:51:11.851Z,57.17
2019-02-15T01:52:11.828Z,56.88
2019-02-15T01:53:11.811Z,57.24
2019-02-15T01:54:11.786Z,57.04
2019-02-15T01:55:11.769Z,58.00
2019-02-15T01:56:11.741Z,58.09
2019-02-15T01:57:11.727Z,57.90
2019-02-15T01:58:11.705Z,57.90
2019-02-15T01:59:11.668Z,58.28
2019-02-15T02:00:11.674Z,57.90
2019-02-15T02:01:11.641Z,58.00
2019-02-15T02:02:11.626Z,57.71
2019-02-15T02:03:11.577Z,58.09
2019-02-15T02:04:11.564Z,58.37
2019-02-15T02:05:11.537Z,58.47
2019-02-15T02:06:11.533Z,58.18
2019-02-15T02:07:11.499Z,58.95
2019-02-15T02:08:11.517Z,58.95
2019-02-15T02:09:11.482Z,58.98
2019-02-15T02:10:11.423Z,58.47
2019-02-15T02:11:11.406Z,58.59
2019-02-15T02:12:11.382Z,58.88
2019-02-15T02:13:11.361Z,58.03
2019-02-15T02:14:11.348Z,58.22
2019-02-15T02:15:11.317Z,58.22
2019-02-15T02:16:11.325Z,58.31
2019-02-15T02:17:11.266Z,58.22
2019-02-15T02:18:11.305Z,58.50
2019-02-15T02:19:11.233Z,58.40
2019-02-15T02:20:11.203Z,58.79
2019-02-15T02:21:11.180Z,58.69
2019-02-15T02:22:11.167Z,58.40
2019-02-15T02:23:11.157Z,58.57
2019-02-15T02:24:11.121Z,58.47
2019-02-15T02:25:11.097Z,58.76
2019-02-15T02:26:11.088Z,58.37
2019-02-15T02:27:11.067Z,59.33
2019-02-15T02:28:11.028Z,58.95
2019-02-15T02:29:11.011Z,59.14
2019-02-15T02:30:10.997Z,59.14
2019-02-15T02:31:10.969Z,59.14
2019-02-15T02:32:10.953Z,59.23
2019-02-15T02:33:10.933Z,59.33
2019-02-15T02:34:10.895Z,59.33
2019-02-15T02:35:10.902Z,59.23
2019-02-15T02:36:10.854Z,59.52
2019-02-15T02:37:10.822Z,59.23
2019-02-15T02:38:10.815Z,59.52
2019-02-15T02:39:10.782Z,59.14
2019-02-15T02:40:10.755Z,59.23
2019-02-15T02:41:10.734Z,59.52
2019-02-15T02:42:10.712Z,59.33
2019-02-15T02:43:10.722Z,59.33
2019-02-15T02:44:10.671Z,59.52
2019-02-15T02:45:10.645Z,59.42
2019-02-15T02:46:10.658Z,59.52
2019-02-15T02:47:10.602Z,59.23
2019-02-15T02:48:10.577Z,59.42
2019-02-15T02:49:10.558Z,59.42
2019-02-15T02:50:10.533Z,59.33
2019-02-15T02:51:10.508Z,59.14
2019-02-15T02:52:10.492Z,59.23
2019-02-15T02:53:10.536Z,58.76
2019-02-15T02:54:10.446Z,58.85
2019-02-15T02:55:10.432Z,58.37
2019-02-15T02:56:10.412Z,58.28
2019-02-15T02:57:10.401Z,57.71
2019-02-15T02:58:10.357Z,57.90
2019-02-15T02:59:10.368Z,57.71
2019-02-15T03:00:10.324Z,57.90
2019-02-15T03:01:10.295Z,57.81
2019-02-15T03:02:10.273Z,57.81
2019-02-15T03:03:10.243Z,57.71
2019-02-15T03:04:10.230Z,58.09
2019-02-15T03:05:10.224Z,57.81
2019-02-15T03:06:10.177Z,57.24
2019-02-15T03:07:10.167Z,56.95
2019-02-15T03:08:10.135Z,56.85
2019-02-15T03:09:10.119Z,56.85
2019-02-15T03:10:10.120Z,56.76
2019-02-15T03:11:10.093Z,57.24
2019-02-15T03:12:10.047Z,57.24
2019-02-15T03:13:10.020Z,57.14
2019-02-15T03:14:11.826Z,57.24
2019-02-15T03:15:10.014Z,57.04
2019-02-15T03:16:09.949Z,57.52
2019-02-15T03:17:09.933Z,57.90
2019-02-15T03:18:09.913Z,57.62
2019-02-15T03:19:09.907Z,57.62
2019-02-15T03:20:09.864Z,57.14
2019-02-15T03:21:09.852Z,57.14
2019-02-15T03:22:09.820Z,57.14
2019-02-15T03:23:09.791Z,56.76
2019-02-15T03:24:09.774Z,56.76
2019-02-15T03:25:09.775Z,56.85
2019-02-15T03:26:09.738Z,57.90
2019-02-15T03:27:09.702Z,57.52
2019-02-15T03:28:09.706Z,57.04
2019-02-15T03:29:09.693Z,57.14
2019-02-15T03:30:09.684Z,57.81
2019-02-15T03:31:09.625Z,57.24
2019-02-15T03:32:09.617Z,57.71
2019-02-15T03:33:09.588Z,57.90
2019-02-15T03:34:09.604Z,58.00
2019-02-15T03:35:09.537Z,57.90
2019-02-15T03:36:09.505Z,57.62
2019-02-15T03:37:09.498Z,57.81
2019-02-15T03:38:09.486Z,57.90
2019-02-15T03:39:09.441Z,57.71
2019-02-15T03:40:09.412Z,57.71
2019-02-15T03:41:09.394Z,57.71
2019-02-15T03:42:09.405Z,57.43
2019-02-15T03:43:09.344Z,57.81
2019-02-15T03:44:09.321Z,58.37
2019-02-15T03:45:09.306Z,58.37
2019-02-15T03:46:09.291Z,58.28
2019-02-15T03:47:09.258Z,58.66
2019-02-15T03:48:09.244Z,57.62
2019-02-15T03:49:09.218Z,58.28
2019-02-15T03:50:09.194Z,58.37
2019-02-15T03:51:09.168Z,59.05
2019-02-15T03:52:09.156Z,58.57
2019-02-15T03:53:09.135Z,58.85
2019-02-15T03:54:09.115Z,58.37
2019-02-15T03:55:09.088Z,58.85
2019-02-15T03:56:09.055Z,58.37
2019-02-15T03:57:09.054Z,58.47
2019-02-15T03:58:09.014Z,59.05
2019-02-15T03:59:08.993Z,58.44
2019-02-15T04:00:08.996Z,59.05
2019-02-15T04:01:08.947Z,59.23
2019-02-15T04:02:08.928Z,59.52
2019-02-15T04:03:08.896Z,59.42
2019-02-15T04:04:08.921Z,59.33
2019-02-15T04:05:08.853Z,59.05
2019-02-15T04:06:08.846Z,58.85
2019-02-15T04:07:08.821Z,58.76
2019-02-15T04:08:08.797Z,58.47
2019-02-15T04:09:08.774Z,58.85
2019-02-15T04:10:08.742Z,59.23
2019-02-15T04:11:08.722Z,58.85
2019-02-15T04:12:08.699Z,58.57
2019-02-15T04:13:08.675Z,58.47
2019-02-15T04:14:08.667Z,58.76
2019-02-15T04:15:08.636Z,58.18
2019-02-15T04:16:08.608Z,58.00
2019-02-15T04:17:08.599Z,57.90
2019-02-15T04:18:08.563Z,58.28
2019-02-15T04:19:08.550Z,57.90
2019-02-15T04:20:08.519Z,57.71
2019-02-15T04:21:08.494Z,57.90
2019-02-15T04:22:08.484Z,57.43
2019-02-15T04:23:08.462Z,58.09
2019-02-15T04:24:08.443Z,57.52
2019-02-15T04:25:08.427Z,57.90
2019-02-15T04:26:08.375Z,57.62
2019-02-15T04:27:08.372Z,57.62
2019-02-15T04:28:08.340Z,57.14
2019-02-15T04:29:08.330Z,57.04
2019-02-15T04:30:08.298Z,57.04
2019-02-15T04:31:08.278Z,56.76
2019-02-15T04:32:08.254Z,57.33
2019-02-15T04:33:08.228Z,57.04
2019-02-15T04:34:08.201Z,56.76
2019-02-15T04:35:08.175Z,56.67
2019-02-15T04:36:08.151Z,56.67
2019-02-15T04:37:08.143Z,57.14
2019-02-15T04:38:08.129Z,57.14
2019-02-15T04:39:08.096Z,57.04
2019-02-15T04:40:08.088Z,57.52
2019-02-15T04:41:08.058Z,57.04
2019-02-15T04:42:08.041Z,56.67
2019-02-15T04:43:08.031Z,57.14
2019-02-15T04:44:07.981Z,57.33
2019-02-15T04:45:07.966Z,58.00
2019-02-15T04:46:07.938Z,57.52
2019-02-15T04:47:07.909Z,56.85
2019-02-15T04:48:07.894Z,57.24
2019-02-15T04:49:07.870Z,57.04
2019-02-15T04:50:07.855Z,56.95
2019-02-15T04:51:07.826Z,57.62
2019-02-15T04:52:07.802Z,57.62
2019-02-15T04:53:07.783Z,57.81
2019-02-15T04:54:07.754Z,57.52
2019-02-15T04:55:07.728Z,57.62
2019-02-15T04:56:07.741Z,57.33
2019-02-15T04:57:07.693Z,57.90
2019-02-15T04:58:07.661Z,57.62
2019-02-15T04:59:07.672Z,57.62
2019-02-15T05:00:07.620Z,58.09
2019-02-15T05:01:07.611Z,57.71
2019-02-15T05:02:07.571Z,57.62
2019-02-15T05:03:07.560Z,57.90
2019-02-15T05:04:07.561Z,57.71
2019-02-15T05:05:07.522Z,58.09
2019-02-15T05:06:07.501Z,57.81
2019-02-15T05:07:07.487Z,57.62
2019-02-15T05:08:07.442Z,57.71
2019-02-15T05:09:07.418Z,57.90
2019-02-15T05:10:07.406Z,57.71
2019-02-15T05:11:07.370Z,58.09
2019-02-15T05:12:07.348Z,57.71
2019-02-15T05:13:07.337Z,57.90
2019-02-15T05:14:07.320Z,57.71
2019-02-15T05:15:07.281Z,58.18
2019-02-15T05:16:07.255Z,58.66
2019-02-15T05:17:07.244Z,58.66
2019-02-15T05:18:07.217Z,58.95
2019-02-15T05:19:07.194Z,58.66
2019-02-15T05:20:07.183Z,59.05
2019-02-15T05:21:07.172Z,59.05
2019-02-15T05:22:07.126Z,59.23
2019-02-15T05:23:07.114Z,59.14
2019-02-15T05:24:07.083Z,59.05
2019-02-15T05:25:07.056Z,58.76
2019-02-15T05:26:07.035Z,59.14
2019-02-15T05:27:07.012Z,59.42
2019-02-15T05:28:08.965Z,59.14
2019-02-15T05:29:06.967Z,59.14
2019-02-15T05:30:06.944Z,58.85
2019-02-15T05:31:06.934Z,58.57
2019-02-15T05:32:06.913Z,58.57
2019-02-15T05:33:06.878Z,58.76
2019-02-15T05:34:06.854Z,58.57
2019-02-15T05:35:06.855Z,58.57
2019-02-15T05:36:06.817Z,58.47
2019-02-15T05:37:06.793Z,59.33
2019-02-15T05:38:06.775Z,59.11
2019-02-15T05:39:06.741Z,59.49
2019-02-15T05:40:06.735Z,59.87
2019-02-15T05:41:06.698Z,60.16
2019-02-15T05:42:06.673Z,59.96
2019-02-15T05:43:06.653Z,60.35
2019-02-15T05:44:06.642Z,60.25
2019-02-15T05:45:06.615Z,60.25
2019-02-15T05:46:06.585Z,60.63
2019-02-15T05:47:06.560Z,60.53
2019-02-15T05:48:06.541Z,60.72
2019-02-15T05:49:06.521Z,60.53
2019-02-15T05:50:06.501Z,60.82
2019-02-15T05:51:06.475Z,61.10
2019-02-15T05:52:06.474Z,61.48
2019-02-15T05:53:06.429Z,61.48
2019-02-15T05:54:06.420Z,61.87
2019-02-15T05:55:06.385Z,62.43
2019-02-15T05:56:06.372Z,62.81
2019-02-15T05:57:06.340Z,62.88
2019-02-15T05:58:06.324Z,62.59
2019-02-15T05:59:06.313Z,62.69
2019-02-15T06:00:06.266Z,62.97
2019-02-15T06:01:06.246Z,62.78
2019-02-15T06:02:06.220Z,63.54
2019-02-15T06:03:06.204Z,63.45
2019-02-15T06:04:06.179Z,63.83
2019-02-15T06:05:06.152Z,64.40
2019-02-15T06:06:06.153Z,64.02
2019-02-15T06:07:06.124Z,64.69
2019-02-15T06:08:06.081Z,64.40
2019-02-15T06:09:06.054Z,64.11
2019-02-15T06:10:06.053Z,64.49
2019-02-15T06:11:07.833Z,64.49
2019-02-15T06:12:05.989Z,63.92
2019-02-15T06:13:05.964Z,64.97
2019-02-15T06:14:05.973Z,65.03
2019-02-15T06:15:14.840Z,64.84
2019-02-15T06:16:05.907Z,65.31
2019-02-15T06:17:05.910Z,66.08
2019-02-15T06:18:05.853Z,65.88
2019-02-15T06:19:05.824Z,66.74
2019-02-15T06:20:05.834Z,67.02
2019-02-15T06:21:05.781Z,68.16
2019-02-15T06:22:05.793Z,68.54
2019-02-15T06:23:05.739Z,69.40
2019-02-15T06:24:05.721Z,68.73
2019-02-15T06:25:05.692Z,68.73
2019-02-15T06:26:05.674Z,68.73
2019-02-15T06:27:05.668Z,68.44
2019-02-15T06:28:05.619Z,69.21
2019-02-15T06:29:05.593Z,69.87
2019-02-15T06:30:05.584Z,70.35
2019-02-15T06:31:05.544Z,70.44
2019-02-15T06:32:05.533Z,70.40
2019-02-15T06:33:05.515Z,70.12
2019-02-15T06:34:05.480Z,70.40
2019-02-15T06:35:05.456Z,70.03
2019-02-15T06:36:05.438Z,70.03
2019-02-15T06:37:05.414Z,70.78
2019-02-15T06:38:05.392Z,70.88
2019-02-15T06:39:05.371Z,70.98
2019-02-15T06:40:05.354Z,71.07
2019-02-15T06:41:05.341Z,71.45
2019-02-15T06:42:05.321Z,71.26
2019-02-15T06:43:05.287Z,72.21
2019-02-15T06:44:05.259Z,72.49
2019-02-15T06:45:05.233Z,72.40
2019-02-15T06:46:05.203Z,71.83
2019-02-15T06:47:05.181Z,71.55
2019-02-15T06:48:05.211Z,71.73
2019-02-15T06:49:05.152Z,71.55
2019-02-15T06:50:06.602Z,72.11
2019-02-15T06:51:05.080Z,72.49
2019-02-15T06:52:05.060Z,72.49
2019-02-15T06:53:05.057Z,72.21
2019-02-15T06:54:05.027Z,72.68
2019-02-15T06:55:04.979Z,72.40
2019-02-15T06:56:04.969Z,72.21
2019-02-15T06:57:04.958Z,72.40
2019-02-15T06:58:04.933Z,72.49
2019-02-15T06:59:04.929Z,73.44
2019-02-15T07:00:04.889Z,72.68
2019-02-15T07:01:04.861Z,72.21
2019-02-15T07:02:04.829Z,73.35
2019-02-15T07:03:04.809Z,73.54
2019-02-15T07:04:04.774Z,72.40
2019-02-15T07:05:04.774Z,72.40
2019-02-15T07:06:04.725Z,72.21
2019-02-15T07:07:04.694Z,71.83
2019-02-15T07:08:04.722Z,71.07
2019-02-15T07:09:04.655Z,71.36
2019-02-15T07:10:04.641Z,71.30
2019-02-15T07:11:04.638Z,71.30
2019-02-15T07:12:04.583Z,70.82
2019-02-15T07:13:04.575Z,70.25
2019-02-15T07:14:04.580Z,70.06
2019-02-15T07:15:04.528Z,69.49
2019-02-15T07:16:04.497Z,70.15
2019-02-15T07:17:04.469Z,69.49
2019-02-15T07:18:04.450Z,69.05
2019-02-15T07:19:04.442Z,68.67
2019-02-15T07:20:04.396Z,68.48
2019-02-15T07:21:04.442Z,68.77
2019-02-15T07:22:04.858Z,68.01
2019-02-15T07:23:04.321Z,67.38
2019-02-15T07:24:04.304Z,67.09
2019-02-15T07:25:04.300Z,66.33
2019-02-15T07:26:04.267Z,66.14
2019-02-15T07:27:04.250Z,65.86
2019-02-15T07:28:04.235Z,65.19
2019-02-15T07:29:04.204Z,65.47
2019-02-15T07:30:04.160Z,65.38
2019-02-15T07:31:04.139Z,65.03
2019-02-15T07:32:04.116Z,63.99
2019-02-15T07:33:04.093Z,63.89
2019-02-15T07:34:04.068Z,63.70
2019-02-15T07:35:04.063Z,63.42
2019-02-15T07:36:04.066Z,62.97
2019-02-15T07:37:04.025Z,62.59
2019-02-15T07:38:03.993Z,62.97
2019-02-15T07:39:03.947Z,62.69
2019-02-15T07:40:03.938Z,62.69
2019-02-15T07:41:03.912Z,62.40
2019-02-15T07:42:03.898Z,62.59
2019-02-15T07:43:03.859Z,62.30
2019-02-15T07:44:03.839Z,62.21
2019-02-15T07:45:03.830Z,62.78
2019-02-15T07:46:03.807Z,62.02
2019-02-15T07:47:03.780Z,62.30
2019-02-15T07:48:03.751Z,61.35
2019-02-15T07:49:03.720Z,61.35
2019-02-15T07:50:03.710Z,61.64
2019-02-15T07:51:09.497Z,61.58
2019-02-15T07:52:03.661Z,61.58
2019-02-15T07:53:03.630Z,61.86
2019-02-15T07:54:03.625Z,61.38
2019-02-15T07:55:03.612Z,61.58
2019-02-15T07:56:03.583Z,61.19
2019-02-15T07:57:03.547Z,61.29
2019-02-15T07:58:03.531Z,60.44
2019-02-15T07:59:03.519Z,60.53
2019-02-15T08:00:03.484Z,60.24
2019-02-15T08:01:03.469Z,60.24
2019-02-15T08:02:03.464Z,60.53
2019-02-15T08:03:03.448Z,60.53
2019-02-15T08:04:03.406Z,60.53
2019-02-15T08:05:03.377Z,60.34
2019-02-15T08:06:03.370Z,60.53
2019-02-15T08:07:03.329Z,60.82
2019-02-15T08:08:03.328Z,60.72
2019-02-15T08:09:03.292Z,61.38
2019-02-15T08:10:03.282Z,61.38
2019-02-15T08:11:03.244Z,61.48
2019-02-15T08:12:03.233Z,60.72
2019-02-15T08:13:03.193Z,60.91
2019-02-15T08:14:03.210Z,60.63
2019-02-15T08:15:03.159Z,60.46
2019-02-15T08:16:03.146Z,60.37
2019-02-15T08:17:03.111Z,60.37
2019-02-15T08:18:03.086Z,60.27
2019-02-15T08:19:03.070Z,59.32
2019-02-15T08:20:03.081Z,59.80
2019-02-15T08:21:03.030Z,59.70
2019-02-15T08:22:03.008Z,59.61
2019-02-15T08:23:02.988Z,59.23
2019-02-15T08:24:02.957Z,59.23
2019-02-15T08:25:03.082Z,59.80
2019-02-15T08:26:02.915Z,59.35
2019-02-15T08:27:02.893Z,58.94
2019-02-15T08:28:02.876Z,59.35
2019-02-15T08:29:02.850Z,59.16
2019-02-15T08:30:02.827Z,59.06
2019-02-15T08:31:02.836Z,59.16
2019-02-15T08:32:02.784Z,59.35
2019-02-15T08:33:02.777Z,59.54
2019-02-15T08:34:02.742Z,59.16
2019-02-15T08:35:02.720Z,59.16
2019-02-15T08:36:02.701Z,59.16
2019-02-15T08:37:02.687Z,59.26
2019-02-15T08:38:02.664Z,58.30
2019-02-15T08:39:02.637Z,59.06
2019-02-15T08:40:02.623Z,58.69
2019-02-15T08:41:02.624Z,58.72
2019-02-15T08:42:04.434Z,58.69
2019-02-15T08:43:02.554Z,58.33
2019-02-15T08:44:02.562Z,58.62
2019-02-15T08:45:02.516Z,58.52
2019-02-15T08:46:03.412Z,58.62
2019-02-15T08:47:02.468Z,58.81
2019-02-15T08:48:02.455Z,58.81
2019-02-15T08:49:02.443Z,57.86
2019-02-15T08:50:02.432Z,57.76
2019-02-15T08:51:02.384Z,58.81
2019-02-15T08:52:02.368Z,58.52
2019-02-15T08:53:02.341Z,57.67
2019-02-15T08:54:02.319Z,57.48
2019-02-15T08:55:02.303Z,57.76
2019-02-15T08:56:02.280Z,57.48
2019-02-15T08:57:02.266Z,56.81
2019-02-15T08:58:02.237Z,57.50
2019-02-15T08:59:02.221Z,56.81
2019-02-15T09:00:02.195Z,57.12
2019-02-15T09:01:02.198Z,57.60
2019-02-15T09:02:02.153Z,57.60
2019-02-15T09:03:02.133Z,57.70
2019-02-15T09:04:02.118Z,57.03
2019-02-15T09:05:02.402Z,57.03
2019-02-15T09:06:02.073Z,57.03
2019-02-15T09:07:02.057Z,56.93
2019-02-15T09:08:02.046Z,57.12
2019-02-15T09:09:02.013Z,57.50
2019-02-15T09:10:01.992Z,57.50
2019-02-15T09:11:02.490Z,57.79
2019-02-15T09:12:01.961Z,57.50
2019-02-15T09:13:01.932Z,57.60
2019-02-15T09:14:01.921Z,57.22
2019-02-15T09:15:01.894Z,57.50
2019-02-15T09:16:10.092Z,57.15
2019-02-15T09:17:01.865Z,57.63
2019-02-15T09:18:01.824Z,57.53
2019-02-15T09:19:01.804Z,57.15
2019-02-15T09:20:01.791Z,56.77
2019-02-15T09:21:01.768Z,57.15
2019-02-15T09:22:01.763Z,57.15
2019-02-15T09:23:01.757Z,57.06
2019-02-15T09:24:01.747Z,56.77
2019-02-15T09:25:01.697Z,56.67
2019-02-15T09:26:01.670Z,57.06
2019-02-15T09:27:01.647Z,56.38
2019-02-15T09:28:01.622Z,56.48
2019-02-15T09:29:01.604Z,57.24
2019-02-15T09:30:01.611Z,56.67
2019-02-15T09:31:01.576Z,57.53
2019-02-15T09:32:01.557Z,56.41
2019-02-15T09:33:01.538Z,56.32
2019-02-15T09:34:01.507Z,56.41
2019-02-15T09:35:01.482Z,56.60
2019-02-15T09:36:01.467Z,56.51
2019-02-15T09:37:01.495Z,56.41
2019-02-15T09:38:01.420Z,56.13
2019-02-15T09:39:01.411Z,56.41
2019-02-15T09:40:01.399Z,55.65
2019-02-15T09:41:01.365Z,56.23
2019-02-15T09:42:01.370Z,55.55
2019-02-15T09:43:01.321Z,55.87
2019-02-15T09:44:01.308Z,55.96
2019-02-15T09:45:01.284Z,55.30
2019-02-15T09:46:01.268Z,55.20
2019-02-15T09:47:01.246Z,55.77
2019-02-15T09:48:01.226Z,55.77
2019-02-15T09:49:01.216Z,55.96
2019-02-15T09:50:01.197Z,55.68
2019-02-15T09:51:01.169Z,55.96
2019-02-15T09:52:01.164Z,54.91
2019-02-15T09:53:01.162Z,55.01
2019-02-15T09:54:01.128Z,55.11
2019-02-15T09:55:01.090Z,54.72
2019-02-15T09:56:01.067Z,55.87
2019-02-15T09:57:01.049Z,54.82
2019-02-15T09:58:01.035Z,54.82
2019-02-15T09:59:01.012Z,54.72
2019-02-15T10:00:00.997Z,54.72
2019-02-15T10:01:00.965Z,54.82
2019-02-15T10:02:00.953Z,54.44
2019-02-15T10:03:00.957Z,54.94
2019-02-15T10:04:00.958Z,55.13
2019-02-15T10:05:00.897Z,55.20
2019-02-15T10:06:00.878Z,54.75
2019-02-15T10:07:00.857Z,55.01
2019-02-15T10:08:00.837Z,54.75
2019-02-15T10:09:00.824Z,55.13
2019-02-15T10:10:00.793Z,54.75
2019-02-15T10:11:00.781Z,54.94
2019-02-15T10:12:00.758Z,54.75
2019-02-15T10:13:00.735Z,54.75
2019-02-15T10:14:00.723Z,54.75
2019-02-15T10:15:00.702Z,54.94
2019-02-15T10:16:00.684Z,54.94
2019-02-15T10:17:00.663Z,54.94
2019-02-15T10:18:00.637Z,54.37
2019-02-15T10:19:00.623Z,54.18
2019-02-15T10:20:00.606Z,54.59
2019-02-15T10:21:00.612Z,54.68
2019-02-15T10:22:00.567Z,54.39
2019-02-15T10:23:00.569Z,55.16
2019-02-15T10:24:00.526Z,54.97
2019-02-15T10:25:00.506Z,54.59
2019-02-15T10:26:00.488Z,54.97
2019-02-15T10:27:00.469Z,54.59
2019-02-15T10:28:00.465Z,54.97
2019-02-15T10:29:00.473Z,54.97
2019-02-15T10:30:02.429Z,54.02
2019-02-15T10:31:00.395Z,54.49
2019-02-15T10:32:00.372Z,54.11
2019-02-15T10:33:00.356Z,55.07
2019-02-15T10:34:00.341Z,54.39
2019-02-15T10:35:00.351Z,54.49
2019-02-15T10:36:00.295Z,55.07
2019-02-15T10:37:00.276Z,54.49
2019-02-15T10:38:00.310Z,54.21
2019-02-15T10:39:00.237Z,54.33
2019-02-15T10:40:00.323Z,54.02
2019-02-15T10:41:00.200Z,54.49
2019-02-15T10:42:00.181Z,54.14
2019-02-15T10:43:00.161Z,54.23
2019-02-15T10:44:00.150Z,54.04
2019-02-15T10:45:00.161Z,53.94
2019-02-15T10:46:00.101Z,54.33
2019-02-15T10:47:00.090Z,54.23
2019-02-15T10:48:00.065Z,54.23
2019-02-15T10:49:00.045Z,54.43
2019-02-15T10:50:00.025Z,54.14
2019-02-15T10:51:00.006Z,54.33
2019-02-15T10:51:59.991Z,54.33
2019-02-15T10:52:59.968Z,54.33
2019-02-15T10:54:00.189Z,54.14
2019-02-15T10:54:59.932Z,53.56
2019-02-15T10:55:59.908Z,53.66
2019-02-15T10:56:59.911Z,53.37
2019-02-15T10:57:59.876Z,53.66
2019-02-15T10:58:59.850Z,53.47
2019-02-15T10:59:59.836Z,53.28
2019-02-15T11:00:59.820Z,53.18
2019-02-15T11:01:59.796Z,53.47
2019-02-15T11:02:59.779Z,53.66
2019-02-15T11:03:59.771Z,53.59
2019-02-15T11:04:59.741Z,53.59
2019-02-15T11:05:59.723Z,53.30
2019-02-15T11:06:59.702Z,53.20
2019-02-15T11:07:59.686Z,52.83
2019-02-15T11:08:59.667Z,53.30
2019-02-15T11:09:59.658Z,53.02
2019-02-15T11:10:59.627Z,53.02
2019-02-15T11:11:59.610Z,53.59
2019-02-15T11:12:59.642Z,53.02
2019-02-15T11:13:59.568Z,52.54
2019-02-15T11:14:59.555Z,52.73
2019-02-15T11:15:59.549Z,52.54
2019-02-15T11:16:59.520Z,52.73
2019-02-15T11:17:59.519Z,52.15
2019-02-15T11:18:59.499Z,51.77
2019-02-15T11:19:59.475Z,52.47
2019-02-15T11:20:59.440Z,52.75
2019-02-15T11:21:59.421Z,53.04
2019-02-15T11:22:59.405Z,52.83
2019-02-15T11:23:59.391Z,52.75
2019-02-15T11:24:59.366Z,52.75
2019-02-15T11:25:59.345Z,52.15
2019-02-15T11:26:59.331Z,51.87
2019-02-15T11:27:59.313Z,52.56
2019-02-15T11:28:59.293Z,52.18
2019-02-15T11:29:59.269Z,52.28
2019-02-15T11:30:59.256Z,52.66
2019-02-15T11:31:59.237Z,52.37
2019-02-15T11:32:59.217Z,52.85
2019-02-15T11:33:59.203Z,52.66
2019-02-15T11:34:59.188Z,52.85
2019-02-15T11:35:59.162Z,52.18
2019-02-15T11:36:59.145Z,52.56
2019-02-15T11:37:59.131Z,52.09
2019-02-15T11:38:59.104Z,51.89
2019-02-15T11:39:59.091Z,51.51
2019-02-15T11:40:59.081Z,52.09
2019-02-15T11:41:59.056Z,51.79
2019-02-15T11:42:59.036Z,51.89
2019-02-15T11:43:59.018Z,51.89
2019-02-15T11:44:59.001Z,52.09
2019-02-15T11:45:58.979Z,52.09
2019-02-15T11:46:58.986Z,52.09
2019-02-15T11:47:58.963Z,51.79
2019-02-15T11:48:58.929Z,51.13
2019-02-15T11:49:58.934Z,51.03
2019-02-15T11:50:58.890Z,51.89
2019-02-15T11:51:58.881Z,51.92
2019-02-15T11:52:58.849Z,51.06
2019-02-15T11:53:58.848Z,51.06
2019-02-15T11:54:58.816Z,50.96
2019-02-15T11:55:58.808Z,50.87
2019-02-15T11:56:58.777Z,51.42
2019-02-15T11:57:58.753Z,50.77
2019-02-15T11:58:58.740Z,51.03
2019-02-15T11:59:58.725Z,50.58
2019-02-15T12:00:58.703Z,50.87
2019-02-15T12:02:05.874Z,50.96
2019-02-15T12:02:58.668Z,50.29
2019-02-15T12:03:58.651Z,50.20
2019-02-15T12:04:58.629Z,50.29
2019-02-15T12:05:58.615Z,50.48
2019-02-15T12:06:58.591Z,50.20
2019-02-15T12:07:58.576Z,50.77
2019-02-15T12:08:58.559Z,50.67
2019-02-15T12:09:58.538Z,50.77
2019-02-15T12:10:58.521Z,51.34
2019-02-15T12:11:58.526Z,51.15
2019-02-15T12:12:58.485Z,51.25
2019-02-15T12:13:58.480Z,51.54
2019-02-15T12:14:58.447Z,51.34
2019-02-15T12:15:58.426Z,51.25
2019-02-15T12:17:05.498Z,50.96
2019-02-15T12:17:58.388Z,51.15
2019-02-15T12:18:58.379Z,50.87
2019-02-15T12:19:58.357Z,51.15
2019-02-15T12:20:58.340Z,51.15
2019-02-15T12:21:58.320Z,52.11
2019-02-15T12:22:58.302Z,51.44
2019-02-15T12:23:58.285Z,50.87
2019-02-15T12:24:58.276Z,50.67
2019-02-15T12:25:58.247Z,50.41
2019-02-15T12:26:58.229Z,50.22
2019-02-15T12:27:58.211Z,49.65
2019-02-15T12:28:58.193Z,50.32
2019-02-15T12:29:58.178Z,50.22
2019-02-15T12:30:58.156Z,49.93
2019-02-15T12:31:58.133Z,49.84
2019-02-15T12:32:58.122Z,49.93
2019-02-15T12:33:58.101Z,49.55
2019-02-15T12:34:58.084Z,50.51
2019-02-15T12:35:58.067Z,50.12
2019-02-15T12:36:58.046Z,49.16
2019-02-15T12:37:58.031Z,48.97
2019-02-15T12:38:58.025Z,49.65
2019-02-15T12:39:58.005Z,49.07
2019-02-15T12:40:57.979Z,48.88
2019-02-15T12:41:57.977Z,48.88
2019-02-15T12:42:57.938Z,48.88
2019-02-15T12:43:57.929Z,48.88
2019-02-15T12:44:57.923Z,49.07
2019-02-15T12:45:57.884Z,48.88
2019-02-15T12:46:57.868Z,48.97
2019-02-15T12:47:57.852Z,48.59
2019-02-15T12:48:57.846Z,48.40
2019-02-15T12:49:57.819Z,48.30
2019-02-15T12:50:57.792Z,48.21
2019-02-15T12:51:57.780Z,47.92